Time,TemperatureF,DewpointF,PressureIn,WindDirection,WindDirectionDegrees,WindSpeedMPH,WindSpeedGustMPH,Humidity,HourlyPrecipIn,Conditions,Clouds,dailyrainin,SolarRadiationWatts/m^2,SoftwareType,DateUTC
2013-04-19 00:32:00,32.0,31.0,-100.00,NE,50,0.0,0.0,97,0.00,,,0.00,0.000000,,2013-04-19 05:32:00,
2013-04-19 00:42:00,32.0,31.0,-100.00,NE,50,0.0,0.0,97,0.00,,,0.00,0.000000,,2013-04-19 05:42:00,
2013-04-19 00:52:00,32.0,31.0,-100.00,NE,50,0.0,0.0,97,0.00,,,0.00,0.000000,,2013-04-19 05:52:00,
2013-04-19 01:01:00,32.0,31.0,-100.00,NE,50,0.0,0.0,97,0.00,,,0.00,0.000000,,2013-04-19 06:01:00,
2013-04-19 01:02:00,31.0,30.0,-100.00,NE,42,0.0,0.0,97,0.00,,,0.00,0.000000,,2013-04-19 06:02:00,
2013-04-19 01:32:00,31.0,30.0,-100.00,NE,42,0.0,0.0,97,0.00,,,0.00,0.000000,,2013-04-19 06:32:00,
2013-04-19 01:42:00,31.0,30.0,-100.00,NE,42,0.0,0.0,97,0.00,,,0.00,0.000000,,2013-04-19 06:42:00,
2013-04-19 01:53:00,31.0,30.0,-100.00,NE,42,0.0,0.0,97,0.00,,,0.00,0.000000,,2013-04-19 06:53:00,
2013-04-19 02:02:00,31.0,31.0,-100.00,NE,50,0.0,0.0,98,0.00,,,0.00,0.000000,,2013-04-19 07:02:00,
2013-04-19 02:32:00,31.0,31.0,-100.00,NE,50,0.0,0.0,98,0.00,,,0.00,0.000000,,2013-04-19 07:32:00,
2013-04-19 02:42:00,31.0,31.0,-100.00,NE,50,0.0,0.0,98,0.00,,,0.00,0.000000,,2013-04-19 07:42:00,
2013-04-19 02:52:00,31.0,31.0,-100.00,NE,50,0.0,0.0,98,0.00,,,0.00,0.000000,,2013-04-19 07:52:00,
2013-04-19 03:33:00,31.0,31.0,-100.00,NE,41,0.0,0.0,98,0.00,,,0.00,0.000000,,2013-04-19 08:33:00,
2013-04-19 03:42:00,31.0,31.0,-100.00,NE,41,0.0,0.0,98,0.00,,,0.00,0.000000,,2013-04-19 08:42:00,
2013-04-19 03:52:00,31.0,31.0,-100.00,NE,41,0.0,0.0,98,0.00,,,0.00,0.000000,,2013-04-19 08:52:00,
2013-04-19 04:01:00,31.0,31.0,-100.00,NE,41,0.0,0.0,98,0.00,,,0.00,0.000000,,2013-04-19 09:01:00,
2013-04-19 04:02:00,31.0,31.0,-100.00,NNE,27,0.0,0.0,98,0.00,,,0.00,0.000000,,2013-04-19 09:02:00,
2013-04-19 04:33:00,31.0,31.0,-100.00,NNE,27,0.0,0.0,98,0.00,,,0.00,0.000000,,2013-04-19 09:33:00,
2013-04-19 04:43:00,31.0,31.0,-100.00,NNE,27,0.0,0.0,98,0.00,,,0.00,0.000000,,2013-04-19 09:43:00,
2013-04-19 04:52:00,31.0,31.0,-100.00,NNE,27,0.0,0.0,98,0.00,,,0.00,0.000000,,2013-04-19 09:52:00,
2013-04-19 05:02:00,29.0,28.0,-100.00,NE,42,0.0,0.0,97,0.00,,,0.00,0.000000,,2013-04-19 10:02:00,
2013-04-19 05:33:00,29.0,28.0,-100.00,NE,42,0.0,0.0,97,0.00,,,0.00,0.000000,,2013-04-19 10:33:00,
2013-04-19 05:42:00,29.0,28.0,-100.00,NE,42,0.0,0.0,97,0.00,,,0.00,0.000000,,2013-04-19 10:42:00,
2013-04-19 05:52:00,29.0,28.0,-100.00,NE,42,0.0,0.0,97,0.00,,,0.00,0.000000,,2013-04-19 10:52:00,
2013-04-19 06:02:00,28.0,27.0,-100.00,North,356,0.0,0.0,96,0.00,,,0.00,0.000000,,2013-04-19 11:02:00,
2013-04-19 06:32:00,28.0,27.0,-100.00,North,356,0.0,0.0,96,0.00,,,0.00,0.000000,,2013-04-19 11:32:00,
2013-04-19 06:43:00,28.0,27.0,-100.00,North,356,0.0,0.0,96,0.00,,,0.00,0.000000,,2013-04-19 11:43:00,
2013-04-19 06:52:00,28.0,27.0,-100.00,North,356,0.0,0.0,96,0.00,,,0.00,0.000000,,2013-04-19 11:52:00,
2013-04-19 07:22:00,27.0,26.0,-100.00,NNW,339,0.0,0.0,95,0.00,,,0.00,7.000000,,2013-04-19 12:22:00,
2013-04-19 07:32:00,27.0,26.0,-100.00,NNW,339,0.0,0.0,95,0.00,,,0.00,7.000000,,2013-04-19 12:32:00,
2013-04-19 07:42:00,27.0,26.0,-100.00,NNW,339,0.0,0.0,95,0.00,,,0.00,7.000000,,2013-04-19 12:42:00,
2013-04-19 07:53:00,27.0,26.0,-100.00,NNW,339,0.0,0.0,95,0.00,,,0.00,7.000000,,2013-04-19 12:53:00,
2013-04-19 08:01:00,27.0,26.0,-100.00,NNW,339,0.0,0.0,95,0.00,,,0.00,7.000000,,2013-04-19 13:01:00,
2013-04-19 08:32:00,27.0,25.0,-100.00,NNW,345,0.0,0.0,91,0.00,,,0.00,59.000000,,2013-04-19 13:32:00,
2013-04-19 08:42:00,27.0,25.0,-100.00,NNW,345,0.0,0.0,91,0.00,,,0.00,59.000000,,2013-04-19 13:42:00,
2013-04-19 08:52:00,27.0,25.0,-100.00,NNW,345,0.0,0.0,91,0.00,,,0.00,59.000000,,2013-04-19 13:52:00,
2013-04-19 09:01:00,27.0,25.0,-100.00,NNW,345,0.0,0.0,91,0.00,,,0.00,59.000000,,2013-04-19 14:01:00,
2013-04-19 09:22:00,26.0,23.0,-100.00,NNW,331,0.0,0.0,90,0.00,,,0.00,93.000000,,2013-04-19 14:22:00,
2013-04-19 09:32:00,26.0,23.0,-100.00,NNW,331,0.0,0.0,90,0.00,,,0.00,93.000000,,2013-04-19 14:32:00,
2013-04-19 09:43:00,26.0,23.0,-100.00,NNW,331,0.0,0.0,90,0.00,,,0.00,93.000000,,2013-04-19 14:43:00,
2013-04-19 09:52:00,26.0,23.0,-100.00,NNW,331,0.0,0.0,90,0.00,,,0.00,93.000000,,2013-04-19 14:52:00,
2013-04-19 10:01:00,26.0,23.0,-100.00,NNW,331,0.0,0.0,90,0.00,,,0.00,93.000000,,2013-04-19 15:01:00,
2013-04-19 10:02:00,27.0,23.0,-100.00,NW,323,0.0,0.0,84,0.00,,,0.00,223.000000,,2013-04-19 15:02:00,
2013-04-19 10:22:00,27.0,23.0,-100.00,NW,323,0.0,0.0,84,0.00,,,0.00,223.000000,,2013-04-19 15:22:00,
2013-04-19 10:33:00,27.0,23.0,-100.00,NW,323,0.0,0.0,84,0.00,,,0.00,223.000000,,2013-04-19 15:33:00,
2013-04-19 10:43:00,27.0,23.0,-100.00,NW,323,0.0,0.0,84,0.00,,,0.00,223.000000,,2013-04-19 15:43:00,
2013-04-19 10:52:00,27.0,23.0,-100.00,NW,323,0.0,0.0,84,0.00,,,0.00,223.000000,,2013-04-19 15:52:00,
2013-04-19 11:02:00,28.0,24.0,-100.00,NW,317,0.0,0.0,83,0.00,,,0.00,290.000000,,2013-04-19 16:02:00,
2013-04-19 11:33:00,28.0,24.0,-100.00,NW,317,0.0,0.0,83,0.00,,,0.00,290.000000,,2013-04-19 16:33:00,
2013-04-19 11:43:00,28.0,24.0,-100.00,NW,317,0.0,0.0,83,0.00,,,0.00,290.000000,,2013-04-19 16:43:00,
2013-04-19 11:53:00,28.0,24.0,-100.00,NW,317,0.0,0.0,83,0.00,,,0.00,290.000000,,2013-04-19 16:53:00,
2013-04-19 12:02:00,28.0,23.0,-100.00,NW,316,0.0,0.0,82,0.00,,,0.00,382.000000,,2013-04-19 17:02:00,
2013-04-19 12:33:00,28.0,23.0,-100.00,NW,316,0.0,0.0,82,0.00,,,0.00,382.000000,,2013-04-19 17:33:00,
2013-04-19 12:43:00,28.0,23.0,-100.00,NW,316,0.0,0.0,82,0.00,,,0.00,382.000000,,2013-04-19 17:43:00,
2013-04-19 12:52:00,28.0,23.0,-100.00,NW,316,0.0,0.0,82,0.00,,,0.00,382.000000,,2013-04-19 17:52:00,
2013-04-19 13:33:00,27.0,21.0,-100.00,NW,325,0.0,0.0,78,0.00,,,0.00,411.000000,,2013-04-19 18:33:00,
2013-04-19 13:43:00,27.0,21.0,-100.00,NW,325,0.0,0.0,78,0.00,,,0.00,411.000000,,2013-04-19 18:43:00,
2013-04-19 13:52:00,27.0,21.0,-100.00,NW,325,0.0,0.0,78,0.00,,,0.00,411.000000,,2013-04-19 18:52:00,
2013-04-19 14:01:00,27.0,21.0,-100.00,NW,325,0.0,0.0,78,0.00,,,0.00,411.000000,,2013-04-19 19:01:00,
2013-04-19 14:02:00,25.0,19.0,-100.00,NNW,337,0.0,0.0,78,0.00,,,0.00,436.000000,,2013-04-19 19:02:00,
2013-04-19 14:32:00,25.0,19.0,-100.00,NNW,337,0.0,0.0,78,0.00,,,0.00,436.000000,,2013-04-19 19:32:00,
2013-04-19 14:42:00,25.0,19.0,-100.00,NNW,337,0.0,0.0,78,0.00,,,0.00,436.000000,,2013-04-19 19:42:00,
2013-04-19 14:52:00,25.0,19.0,-100.00,NNW,337,0.0,0.0,78,0.00,,,0.00,436.000000,,2013-04-19 19:52:00,
2013-04-19 15:32:00,26.0,19.0,-100.00,NW,326,0.0,0.0,76,0.00,,,0.00,531.000000,,2013-04-19 20:32:00,
2013-04-19 15:42:00,26.0,19.0,-100.00,NW,326,0.0,0.0,76,0.00,,,0.00,531.000000,,2013-04-19 20:42:00,
2013-04-19 15:52:00,26.0,19.0,-100.00,NW,326,0.0,0.0,76,0.00,,,0.00,531.000000,,2013-04-19 20:52:00,
2013-04-19 16:01:00,26.0,19.0,-100.00,NW,326,0.0,0.0,76,0.00,,,0.00,531.000000,,2013-04-19 21:01:00,
2013-04-19 16:02:00,25.0,19.0,-100.00,NNW,336,0.0,0.0,76,0.00,,,0.00,410.000000,,2013-04-19 21:02:00,
2013-04-19 16:32:00,25.0,19.0,-100.00,NNW,336,0.0,0.0,76,0.00,,,0.00,410.000000,,2013-04-19 21:32:00,
2013-04-19 16:43:00,25.0,19.0,-100.00,NNW,336,0.0,0.0,76,0.00,,,0.00,410.000000,,2013-04-19 21:43:00,
2013-04-19 16:53:00,25.0,19.0,-100.00,NNW,336,0.0,0.0,76,0.00,,,0.00,410.000000,,2013-04-19 21:53:00,
2013-04-19 17:02:00,23.0,18.0,-100.00,NW,318,0.0,0.0,81,0.00,,,0.00,255.000000,,2013-04-19 22:02:00,
2013-04-19 17:33:00,23.0,18.0,-100.00,NW,318,0.0,0.0,81,0.00,,,0.00,255.000000,,2013-04-19 22:33:00,
2013-04-19 17:42:00,23.0,18.0,-100.00,NW,318,0.0,0.0,81,0.00,,,0.00,255.000000,,2013-04-19 22:42:00,
2013-04-19 17:52:00,23.0,18.0,-100.00,NW,318,0.0,0.0,81,0.00,,,0.00,255.000000,,2013-04-19 22:52:00,
2013-04-19 18:02:00,21.0,17.0,-100.00,NNW,342,0.0,0.0,83,0.00,,,0.00,146.000000,,2013-04-19 23:02:00,
2013-04-19 18:32:00,21.0,17.0,-100.00,NNW,342,0.0,0.0,83,0.00,,,0.00,146.000000,,2013-04-19 23:32:00,
2013-04-19 18:42:00,21.0,17.0,-100.00,NNW,342,0.0,0.0,83,0.00,,,0.00,146.000000,,2013-04-19 23:42:00,
2013-04-19 18:52:00,21.0,17.0,-100.00,NNW,342,0.0,0.0,83,0.00,,,0.00,146.000000,,2013-04-19 23:52:00,
2013-04-19 20:32:00,19.0,16.0,-100.00,NNW,334,0.0,0.0,88,-99.99,,,0.00,14.000000,,2013-04-20 01:32:00,
2013-04-19 20:42:00,19.0,16.0,-100.00,NNW,334,0.0,0.0,88,-99.99,,,0.00,14.000000,,2013-04-20 01:42:00,
2013-04-19 20:52:00,19.0,16.0,-100.00,NNW,334,0.0,0.0,88,-99.99,,,0.00,14.000000,,2013-04-20 01:52:00,
2013-04-19 21:01:00,19.0,16.0,-100.00,NNW,334,0.0,0.0,88,-99.99,,,0.00,14.000000,,2013-04-20 02:01:00,
2013-04-19 21:32:00,19.0,16.0,-100.00,NNW,343,0.0,0.0,87,0.00,,,0.00,0.000000,,2013-04-20 02:32:00,
2013-04-19 21:42:00,19.0,16.0,-100.00,NNW,343,0.0,0.0,87,0.00,,,0.00,0.000000,,2013-04-20 02:42:00,
2013-04-19 21:52:00,19.0,16.0,-100.00,NNW,343,0.0,0.0,87,0.00,,,0.00,0.000000,,2013-04-20 02:52:00,
2013-04-19 22:01:00,19.0,16.0,-100.00,NNW,343,0.0,0.0,87,0.00,,,0.00,0.000000,,2013-04-20 03:01:00,
2013-04-19 22:02:00,19.0,16.0,-100.00,NNW,345,0.0,0.0,89,0.00,,,0.00,0.000000,,2013-04-20 03:02:00,
2013-04-19 22:33:00,19.0,16.0,-100.00,NNW,345,0.0,0.0,89,0.00,,,0.00,0.000000,,2013-04-20 03:33:00,
2013-04-19 22:43:00,19.0,16.0,-100.00,NNW,345,0.0,0.0,89,0.00,,,0.00,0.000000,,2013-04-20 03:43:00,
2013-04-19 22:53:00,19.0,16.0,-100.00,NNW,345,0.0,0.0,89,0.00,,,0.00,0.000000,,2013-04-20 03:53:00,
2013-04-19 23:02:00,19.0,16.0,-100.00,NNW,329,0.0,0.0,89,0.00,,,0.00,0.000000,,2013-04-20 04:02:00,
2013-04-19 23:33:00,19.0,16.0,-100.00,NNW,329,0.0,0.0,89,0.00,,,0.00,0.000000,,2013-04-20 04:33:00,
2013-04-19 23:43:00,19.0,16.0,-100.00,NNW,329,0.0,0.0,89,0.00,,,0.00,0.000000,,2013-04-20 04:43:00,
2013-04-19 23:53:00,19.0,16.0,-100.00,NNW,329,0.0,0.0,89,0.00,,,0.00,0.000000,,2013-04-20 04:53:00,